Time;durP1;ratioP1;P1;durP2;ratioP2;P2;SDS_P1;SDS_P2;PMS_P1;PMS_P2;Temp;Humidity;BMP_temperature;BMP_pressure;BME280_temperature;BME280_humidity;BME280_pressure;Samples;Min_cycle;Max_cycle;Signal;HPM_P1;HPM_P2
2022/07/18 00:00:25;;;;;;;1.75;1.30;;;22.80;68.50;;;;;;5095404;28;20040;-76
2022/07/18 00:02:51;;;;;;;1.05;0.93;;;22.70;68.20;;;;;;5077224;28;20097;-76
2022/07/18 00:05:17;;;;;;;2.50;1.38;;;22.50;69.20;;;;;;5096063;28;20062;-76
2022/07/18 00:07:43;;;;;;;2.08;1.33;;;22.40;69.20;;;;;;5097624;28;20181;-75
2022/07/18 00:10:08;;;;;;;1.48;1.10;;;22.30;68.90;;;;;;5115905;28;20038;-76
2022/07/18 00:12:34;;;;;;;1.85;1.40;;;22.30;69.20;;;;;;5115682;28;20040;-76
2022/07/18 00:15:00;;;;;;;1.80;1.35;;;22.30;69.30;;;;;;5115743;28;20039;-75
2022/07/18 00:17:26;;;;;;;5.18;1.48;;;22.40;69.00;;;;;;5115639;28;20048;-76
2022/07/18 00:19:52;;;;;;;4.03;1.50;;;22.40;68.50;;;;;;5115358;28;20123;-76
2022/07/18 00:22:18;;;;;;;1.95;1.30;;;22.30;68.90;;;;;;5113874;28;20059;-75
2022/07/18 00:24:44;;;;;;;1.25;1.15;;;22.30;69.60;;;;;;5106387;28;20445;-75
2022/07/18 00:27:09;;;;;;;2.38;1.35;;;22.30;68.40;;;;;;5075142;28;20040;-76
2022/07/18 00:29:36;;;;;;;1.50;1.30;;;22.40;68.60;;;;;;5094946;28;20044;-76
2022/07/18 00:32:04;;;;;;;1.30;1.10;;;22.30;68.40;;;;;;5076741;28;20112;-76
2022/07/18 00:34:29;;;;;;;1.98;1.30;;;22.30;68.80;;;;;;5076564;28;20068;-76
2022/07/18 00:36:55;;;;;;;1.85;1.38;;;22.40;68.50;;;;;;5094751;28;20432;-75
2022/07/18 00:39:21;;;;;;;6.20;1.25;;;22.40;68.00;;;;;;5094688;28;20515;-76
2022/07/18 00:41:48;;;;;;;4.43;1.80;;;22.40;67.50;;;;;;5094640;28;20113;-76
2022/07/18 00:44:23;;;;;;;2.00;1.40;;;22.50;67.60;;;;;;5079597;28;20461;-76
2022/07/18 00:46:50;;;;;;;1.73;1.20;;;22.40;67.90;;;;;;5114685;28;20046;-75
2022/07/18 00:49:17;;;;;;;1.20;0.98;;;22.70;66.60;;;;;;5096423;28;20040;-75
2022/07/18 00:51:44;;;;;;;1.45;1.10;;;22.60;67.00;;;;;;5114589;28;20069;-76
2022/07/18 00:54:10;;;;;;;1.48;1.20;;;22.50;66.80;;;;;;5114849;28;20042;-76
2022/07/18 00:56:36;;;;;;;1.20;1.08;;;22.50;67.40;;;;;;5114851;28;20039;-76
2022/07/18 00:59:01;;;;;;;1.63;1.40;;;22.30;67.90;;;;;;5114790;28;20399;-76
2022/07/18 01:01:42;;;;;;;2.55;1.33;;;22.30;67.70;;;;;;5096305;28;20096;-75
2022/07/18 01:04:10;;;;;;;1.77;1.33;;;22.20;68.50;;;;;;5114681;28;20093;-76
2022/07/18 01:06:36;;;;;;;1.73;1.20;;;22.10;68.70;;;;;;5096332;28;20050;-75
2022/07/18 01:09:02;;;;;;;1.42;1.25;;;22.10;67.80;;;;;;5114565;28;20044;-76
2022/07/18 01:11:28;;;;;;;1.65;1.10;;;22.10;68.20;;;;;;5114545;28;20232;-76
2022/07/18 01:13:54;;;;;;;1.30;1.10;;;22.30;67.30;;;;;;5096142;28;20069;-76
2022/07/18 01:16:20;;;;;;;2.08;1.27;;;22.50;66.70;;;;;;5114659;28;20047;-75
2022/07/18 01:18:48;;;;;;;1.70;1.38;;;22.50;69.20;;;;;;5095982;28;20514;-75
2022/07/18 01:21:15;;;;;;;1.80;1.35;;;22.30;67.70;;;;;;5095477;28;20047;-76
2022/07/18 01:23:41;;;;;;;2.92;1.52;;;22.30;68.70;;;;;;5114243;28;20070;-75
2022/07/18 01:26:07;;;;;;;1.38;1.23;;;22.10;68.30;;;;;;5114248;28;20047;-76
2022/07/18 01:28:33;;;;;;;1.92;1.20;;;22.30;68.00;;;;;;5096256;28;20375;-76
2022/07/18 01:30:58;;;;;;;1.52;1.23;;;22.30;67.70;;;;;;5096084;28;20046;-76
2022/07/18 01:33:24;;;;;;;1.75;1.30;;;22.10;68.70;;;;;;5114043;28;20494;-76
2022/07/18 01:35:51;;;;;;;2.15;1.35;;;22.30;67.00;;;;;;5113852;28;20039;-76
2022/07/18 01:38:18;;;;;;;2.90;1.35;;;22.10;68.60;;;;;;5114233;28;20043;-76
2022/07/18 01:40:44;;;;;;;1.52;1.30;;;21.80;68.80;;;;;;5113926;28;20032;-75
2022/07/18 01:43:09;;;;;;;2.13;1.33;;;21.90;68.80;;;;;;5113879;28;20050;-76
2022/07/18 01:45:35;;;;;;;1.42;1.10;;;21.90;68.10;;;;;;5095613;28;20035;-75
2022/07/18 01:48:01;;;;;;;1.95;1.20;;;21.90;68.30;;;;;;5095759;28;20051;-76
2022/07/18 01:50:27;;;;;;;2.22;1.50;;;21.90;68.10;;;;;;5113884;28;20039;-77
2022/07/18 01:52:53;;;;;;;1.77;1.00;;;22.00;67.80;;;;;;5113772;28;20429;-75
2022/07/18 01:55:19;;;;;;;1.45;1.23;;;21.80;68.10;;;;;;5095334;28;20036;-76
2022/07/18 01:57:45;;;;;;;1.70;1.25;;;21.70;67.70;;;;;;5113472;28;20131;-76
2022/07/18 02:00:11;;;;;;;2.15;1.38;;;21.50;67.90;;;;;;5095178;28;20058;-76
2022/07/18 02:02:38;;;;;;;1.63;1.05;;;21.50;68.10;;;;;;5113384;28;20047;-76
2022/07/18 02:05:05;;;;;;;2.05;1.38;;;21.60;67.00;;;;;;5094568;28;20082;-75
2022/07/18 02:07:37;;;;;;;2.65;1.50;;;21.70;67.10;;;;;;5113499;28;20570;-76
2022/07/18 02:10:06;;;;;;;1.83;1.13;;;21.60;67.10;;;;;;5113534;28;20034;-75
2022/07/18 02:12:32;;;;;;;1.60;1.40;;;21.70;67.20;;;;;;5113677;28;20101;-76
2022/07/18 02:14:58;;;;;;;3.30;1.70;;;21.60;67.20;;;;;;5113534;28;20043;-75
2022/07/18 02:17:23;;;;;;;1.17;1.08;;;21.70;66.90;;;;;;5095287;28;20051;-76
2022/07/18 02:19:49;;;;;;;2.78;1.55;;;21.80;67.60;;;;;;5113380;28;20510;-75
2022/07/18 02:22:15;;;;;;;1.40;1.20;;;21.80;66.90;;;;;;5094951;28;20044;-75
2022/07/18 02:24:41;;;;;;;1.90;1.38;;;21.80;66.90;;;;;;5113518;28;20430;-76
2022/07/18 02:27:07;;;;;;;2.33;1.30;;;21.60;67.10;;;;;;5095136;28;20406;-76
2022/07/18 02:29:33;;;;;;;1.60;1.10;;;21.60;67.10;;;;;;5113379;28;20506;-75
2022/07/18 02:31:59;;;;;;;1.30;1.13;;;21.70;66.80;;;;;;5113222;28;20073;-75
2022/07/18 02:34:25;;;;;;;1.25;1.15;;;21.60;67.00;;;;;;5113309;28;20071;-75
2022/07/18 02:36:50;;;;;;;1.85;1.20;;;21.60;67.30;;;;;;5095125;28;20044;-75
2022/07/18 02:39:17;;;;;;;2.00;1.60;;;21.50;67.40;;;;;;5113207;28;20508;-75
2022/07/18 02:41:43;;;;;;;1.73;1.38;;;21.30;70.60;;;;;;5113062;28;20147;-75
2022/07/18 02:44:09;;;;;;;1.63;1.38;;;21.20;68.30;;;;;;5113141;28;20114;-75
2022/07/18 02:46:35;;;;;;;2.03;1.38;;;21.20;68.20;;;;;;5112997;28;20383;-75
2022/07/18 02:49:01;;;;;;;2.28;1.48;;;21.20;68.30;;;;;;5094930;28;20520;-75
2022/07/18 02:51:26;;;;;;;1.25;1.00;;;21.00;68.80;;;;;;5113267;28;20063;-75
2022/07/18 02:53:53;;;;;;;3.78;1.20;;;21.10;68.80;;;;;;5094871;28;20131;-76
2022/07/18 02:56:19;;;;;;;1.80;1.27;;;21.00;70.20;;;;;;5112807;28;20024;-75
2022/07/18 02:58:45;;;;;;;1.75;1.40;;;20.90;69.80;;;;;;5112692;28;20051;-75
2022/07/18 03:01:12;;;;;;;4.25;1.73;;;20.80;69.70;;;;;;5112626;28;20071;-76
2022/07/18 03:03:38;;;;;;;1.52;1.00;;;20.70;70.00;;;;;;5112829;28;20071;-75
2022/07/18 03:06:04;;;;;;;2.42;1.50;;;20.70;69.80;;;;;;5097183;28;20070;-75
2022/07/18 03:08:29;;;;;;;6.30;1.73;;;20.70;69.60;;;;;;5112817;28;20051;-75
2022/07/18 03:10:55;;;;;;;4.35;2.10;;;20.80;69.20;;;;;;5111472;28;20035;-75
2022/07/18 03:13:21;;;;;;;1.67;1.30;;;20.80;69.10;;;;;;5093965;28;20039;-75
2022/07/18 03:15:47;;;;;;;2.92;1.35;;;20.90;69.10;;;;;;5115340;28;20038;-75
2022/07/18 03:18:12;;;;;;;1.70;1.50;;;20.80;69.50;;;;;;5096934;28;20394;-75
2022/07/18 03:20:38;;;;;;;1.30;1.10;;;20.80;69.50;;;;;;5116753;28;20042;-75
2022/07/18 03:23:08;;;;;;;2.47;1.52;;;20.80;69.70;;;;;;5116708;28;20047;-75
2022/07/18 03:25:34;;;;;;;2.10;1.70;;;20.90;69.40;;;;;;5116646;28;20084;-75
2022/07/18 03:28:00;;;;;;;2.45;1.50;;;21.00;68.90;;;;;;5116404;28;20054;-75
2022/07/18 03:30:25;;;;;;;1.90;1.40;;;20.80;69.50;;;;;;5098184;28;20776;-75
2022/07/18 03:32:51;;;;;;;1.25;1.13;;;20.80;69.40;;;;;;5116281;28;20051;-75
2022/07/18 03:35:17;;;;;;;1.85;1.20;;;20.80;69.90;;;;;;5097949;28;20039;-75
2022/07/18 03:37:43;;;;;;;1.77;1.25;;;20.60;70.00;;;;;;5097772;28;20468;-75
2022/07/18 03:40:09;;;;;;;2.25;1.30;;;20.60;71.60;;;;;;5116474;28;20045;-75
2022/07/18 03:42:39;;;;;;;1.80;1.10;;;20.50;71.60;;;;;;5098082;28;20043;-76
2022/07/18 03:45:07;;;;;;;1.67;1.13;;;20.50;71.80;;;;;;5116399;28;20035;-76
2022/07/18 03:47:33;;;;;;;2.00;1.42;;;20.70;71.90;;;;;;5116262;28;20042;-76
2022/07/18 03:49:59;;;;;;;1.45;1.30;;;20.50;71.10;;;;;;5116054;28;20028;-75
2022/07/18 03:52:25;;;;;;;1.80;1.40;;;20.30;72.70;;;;;;5115728;28;20070;-76
2022/07/18 03:54:50;;;;;;;1.98;1.42;;;20.30;73.50;;;;;;5116064;28;20394;-76
2022/07/18 03:57:16;;;;;;;2.58;1.40;;;20.40;72.70;;;;;;5115888;28;20031;-76
2022/07/18 03:59:42;;;;;;;1.30;1.10;;;20.40;72.20;;;;;;5097542;28;20047;-75
2022/07/18 04:02:07;;;;;;;2.00;1.23;;;20.40;72.20;;;;;;5115754;28;20498;-75
2022/07/18 04:04:33;;;;;;;2.35;1.13;;;20.40;72.60;;;;;;5097506;28;20070;-75
2022/07/18 04:06:59;;;;;;;1.42;1.20;;;20.30;73.10;;;;;;5115531;28;20379;-75
2022/07/18 04:09:28;;;;;;;1.50;1.35;;;20.30;73.10;;;;;;5097367;28;20390;-75
2022/07/18 04:11:54;;;;;;;1.45;1.20;;;20.20;73.30;;;;;;5097472;28;20036;-76
2022/07/18 04:14:22;;;;;;;2.10;1.20;;;20.00;72.40;;;;;;5115678;28;20050;-75
2022/07/18 04:16:48;;;;;;;3.38;1.63;;;20.20;72.00;;;;;;5115504;28;20043;-75
2022/07/18 04:19:14;;;;;;;1.92;1.63;;;20.10;73.10;;;;;;5097216;28;20067;-76
2022/07/18 04:21:40;;;;;;;2.85;1.40;;;20.00;73.30;;;;;;5096499;28;20077;-76
2022/07/18 04:24:06;;;;;;;1.90;1.30;;;20.10;72.50;;;;;;5115354;28;20402;-75
2022/07/18 04:26:31;;;;;;;2.22;1.40;;;20.10;73.40;;;;;;5111795;28;20474;-75
2022/07/18 04:28:57;;;;;;;3.22;1.33;;;20.10;74.10;;;;;;5081368;28;20044;-75
2022/07/18 04:31:23;;;;;;;1.77;1.52;;;20.30;73.00;;;;;;5093573;27;20574;-75
2022/07/18 04:33:48;;;;;;;1.98;1.30;;;20.20;74.20;;;;;;5135435;27;20039;-75
2022/07/18 04:36:14;;;;;;;1.98;1.40;;;20.20;73.10;;;;;;5135510;27;20035;-75
2022/07/18 04:38:41;;;;;;;1.10;0.95;;;20.30;72.40;;;;;;5129700;27;20039;-75
2022/07/18 04:41:07;;;;;;;2.65;1.25;;;20.30;72.20;;;;;;5135761;27;20502;-74
2022/07/18 04:43:33;;;;;;;1.58;1.27;;;20.40;71.80;;;;;;5135698;27;20043;-74
2022/07/18 04:45:58;;;;;;;2.45;1.38;;;20.20;72.70;;;;;;5135882;27;20042;-76
2022/07/18 04:48:24;;;;;;;4.70;1.40;;;20.20;73.10;;;;;;5121851;27;20383;-76
2022/07/18 04:50:50;;;;;;;1.92;1.30;;;20.10;73.50;;;;;;5114662;28;20391;-76
2022/07/18 04:53:17;;;;;;;1.48;1.13;;;20.00;75.00;;;;;;5117285;27;20498;-75
2022/07/18 04:55:42;;;;;;;3.15;1.48;;;20.00;76.50;;;;;;5116940;27;20039;-75
2022/07/18 04:58:08;;;;;;;2.78;1.83;;;20.00;75.90;;;;;;5126749;27;20401;-76
2022/07/18 05:00:34;;;;;;;4.55;1.50;;;20.10;73.70;;;;;;5134390;27;20505;-76
2022/07/18 05:03:00;;;;;;;14.65;1.75;;;20.10;74.80;;;;;;5134954;27;20078;-75
2022/07/18 05:05:28;;;;;;;1.52;1.23;;;20.10;73.60;;;;;;5115885;27;20406;-74
2022/07/18 05:07:54;;;;;;;10.48;2.38;;;20.10;75.50;;;;;;5096375;28;20126;-75
2022/07/18 05:10:21;;;;;;;5.10;3.58;;;20.10;76.00;;;;;;5114594;28;20048;-73
2022/07/18 05:12:50;;;;;;;2.50;1.80;;;20.10;76.00;;;;;;5113329;28;20506;-77
2022/07/18 05:15:18;;;;;;;5.28;1.77;;;20.20;73.80;;;;;;5095715;28;20420;-75
2022/07/18 05:17:44;;;;;;;6.40;1.60;;;20.20;76.30;;;;;;5095715;28;20498;-74
2022/07/18 05:20:13;;;;;;;3.33;1.42;;;20.50;75.70;;;;;;5096149;28;20071;-74
2022/07/18 05:22:39;;;;;;;8.68;1.50;;;20.80;72.60;;;;;;5114198;28;20047;-76
2022/07/18 05:25:07;;;;;;;4.63;1.23;;;21.10;74.60;;;;;;5114364;28;20040;-76
2022/07/18 05:27:33;;;;;;;8.30;1.50;;;21.10;76.00;;;;;;5114370;28;20043;-74
2022/07/18 05:29:59;;;;;;;2.08;1.35;;;21.20;75.10;;;;;;5095944;28;20672;-75
2022/07/18 05:32:26;;;;;;;2.30;1.58;;;21.10;74.50;;;;;;5111425;28;20050;-76
2022/07/18 05:34:51;;;;;;;2.47;1.63;;;21.00;74.80;;;;;;5113856;28;20123;-76
2022/07/18 05:37:17;;;;;;;2.92;1.33;;;21.20;74.00;;;;;;5112427;28;20558;-76
2022/07/18 05:39:43;;;;;;;2.63;1.20;;;21.50;75.20;;;;;;5111978;28;20035;-74
2022/07/18 05:42:09;;;;;;;2.72;1.80;;;21.40;74.80;;;;;;5095784;28;20055;-75
2022/07/18 05:44:34;;;;;;;2.67;1.50;;;21.50;75.70;;;;;;5095689;28;20035;-76
2022/07/18 05:47:00;;;;;;;1.92;1.45;;;21.50;77.90;;;;;;5113665;28;20031;-75
2022/07/18 05:49:26;;;;;;;1.42;1.20;;;21.50;77.70;;;;;;5113744;28;20043;-76
2022/07/18 05:51:52;;;;;;;1.90;1.15;;;21.60;76.30;;;;;;5113844;28;20039;-77
2022/07/18 05:54:20;;;;;;;2.20;1.20;;;21.60;75.40;;;;;;5113827;28;20071;-75
2022/07/18 05:56:50;;;;;;;2.17;1.23;;;21.80;75.50;;;;;;5095615;28;20047;-76
2022/07/18 05:59:18;;;;;;;1.63;1.52;;;22.00;74.20;;;;;;5095356;28;20414;-76
2022/07/18 06:01:44;;;;;;;5.22;1.42;;;22.10;74.90;;;;;;5095150;28;20046;-75
2022/07/18 06:04:09;;;;;;;3.17;1.77;;;22.10;74.10;;;;;;5113483;28;20043;-76
2022/07/18 06:06:36;;;;;;;3.63;1.77;;;22.30;73.20;;;;;;5113517;28;20046;-76
2022/07/18 06:09:03;;;;;;;1.75;1.23;;;22.50;72.80;;;;;;5113503;28;20047;-75
2022/07/18 06:11:29;;;;;;;2.08;1.63;;;22.40;73.20;;;;;;5113703;28;20039;-77
2022/07/18 06:13:55;;;;;;;2.50;1.55;;;22.60;73.40;;;;;;5095392;28;20502;-76
2022/07/18 06:16:20;;;;;;;2.22;1.45;;;23.30;88.40;;;;;;5107206;28;20093;-75
2022/07/18 06:18:46;;;;;;;2.45;1.40;;;23.10;72.70;;;;;;5100654;28;20050;-76
2022/07/18 06:21:12;;;;;;;1.58;1.30;;;23.40;73.00;;;;;;5092965;28;20053;-76
2022/07/18 06:23:38;;;;;;;4.60;1.67;;;23.60;72.60;;;;;;5074925;28;20032;-78
2022/07/18 06:26:04;;;;;;;2.47;1.42;;;24.40;69.60;;;;;;5108753;28;20518;-76
2022/07/18 06:28:30;;;;;;;3.17;1.58;;;24.80;70.10;;;;;;5092886;28;20093;-77
2022/07/18 06:30:56;;;;;;;2.17;1.42;;;25.20;68.60;;;;;;5093183;28;20075;-76
2022/07/18 06:33:22;;;;;;;2.13;1.52;;;25.00;73.00;;;;;;5093144;28;20048;-76
2022/07/18 06:35:48;;;;;;;4.30;1.67;;;25.00;74.40;;;;;;5074945;28;20495;-76
2022/07/18 06:38:15;;;;;;;4.68;1.60;;;25.00;74.00;;;;;;5109541;28;20027;-77
2022/07/18 06:40:41;;;;;;;2.42;1.70;;;25.20;76.20;;;;;;5095038;28;20056;-76
2022/07/18 06:43:07;;;;;;;1.83;1.45;;;25.40;76.50;;;;;;5113247;28;20052;-76
2022/07/18 06:45:33;;;;;;;2.40;1.42;;;25.50;76.60;;;;;;5112950;28;20043;-76
2022/07/18 06:47:59;;;;;;;4.47;1.35;;;25.50;77.80;;;;;;5088272;28;20043;-77
2022/07/18 06:50:25;;;;;;;2.65;1.50;;;;;;;;;;5077518;28;20624;-79
2022/07/18 06:52:51;;;;;;;2.45;1.50;;;25.60;92.70;;;;;;5096870;28;20043;-76
2022/07/18 06:55:17;;;;;;;2.75;1.45;;;26.30;75.50;;;;;;5096687;28;20040;-78
2022/07/18 06:57:43;;;;;;;2.60;1.50;;;26.40;75.30;;;;;;5096428;28;20040;-76
2022/07/18 07:00:13;;;;;;;1.88;1.20;;;26.50;75.00;;;;;;5112122;28;20395;-77
2022/07/18 07:02:43;;;;;;;1.55;1.33;;;26.30;73.20;;;;;;5096470;28;20055;-77
2022/07/18 07:05:09;;;;;;;2.40;1.70;;;26.40;71.80;;;;;;5096588;28;20043;-76
2022/07/18 07:07:35;;;;;;;2.50;1.48;;;26.60;74.00;;;;;;5096764;28;20040;-76
2022/07/18 07:10:01;;;;;;;2.92;1.20;;;26.60;73.20;;;;;;5078306;28;20438;-76
2022/07/18 07:12:26;;;;;;;2.72;1.52;;;26.90;72.90;;;;;;5095941;28;20037;-78
2022/07/18 07:14:52;;;;;;;2.47;1.50;;;27.00;72.50;;;;;;5096219;28;20077;-78
2022/07/18 07:17:18;;;;;;;1.35;1.25;;;26.50;69.90;;;;;;5098789;28;20040;-78
2022/07/18 07:19:44;;;;;;;2.50;1.50;;;26.70;71.50;;;;;;5105198;28;20075;-78
2022/07/18 07:22:09;;;;;;;2.00;1.40;;;27.20;70.50;;;;;;5112182;28;20059;-78
2022/07/18 07:24:38;;;;;;;2.80;1.60;;;27.30;70.00;;;;;;5096419;28;20070;-77
2022/07/18 07:27:04;;;;;;;4.35;1.60;;;27.30;68.50;;;;;;5096343;28;20044;-78
2022/07/18 07:29:30;;;;;;;1.63;1.50;;;27.50;68.20;;;;;;5078224;28;20039;-78
2022/07/18 07:31:56;;;;;;;1.40;1.10;;;27.90;68.60;;;;;;5096287;28;20491;-79
2022/07/18 07:34:22;;;;;;;2.33;1.60;;;27.80;68.50;;;;;;5096198;28;20051;-79
2022/07/18 07:36:47;;;;;;;1.40;1.27;;;27.90;66.90;;;;;;5095957;28;20040;-78
2022/07/18 07:39:13;;;;;;;1.80;1.70;;;28.10;69.50;;;;;;5095801;28;20036;-77
2022/07/18 07:41:39;;;;;;;2.63;1.63;;;28.20;68.90;;;;;;5095815;28;20515;-79
2022/07/18 07:44:04;;;;;;;2.42;1.58;;;28.30;67.60;;;;;;5077725;28;20039;-78
2022/07/18 07:46:30;;;;;;;1.60;1.50;;;28.40;68.20;;;;;;5077799;28;20044;-77
2022/07/18 07:48:56;;;;;;;2.10;1.58;;;28.60;68.50;;;;;;5096012;28;20043;-77
2022/07/18 07:51:22;;;;;;;2.47;1.50;;;28.60;67.20;;;;;;5095522;28;20039;-79
2022/07/18 07:53:47;;;;;;;1.38;1.20;;;28.80;67.20;;;;;;5095413;28;20089;-78
2022/07/18 07:56:18;;;;;;;1.83;1.38;;;29.00;65.40;;;;;;5095681;28;20391;-77
2022/07/18 07:58:44;;;;;;;1.77;1.30;;;29.20;65.40;;;;;;5095466;28;20046;-79
2022/07/18 08:01:11;;;;;;;2.40;1.40;;;29.00;62.20;;;;;;5094694;28;20048;-77
2022/07/18 08:03:37;;;;;;;4.22;1.20;;;29.00;63.80;;;;;;5095534;28;20485;-80
2022/07/18 08:06:03;;;;;;;2.00;1.35;;;29.20;61.60;;;;;;5095567;28;20542;-78
2022/07/18 08:08:29;;;;;;;5.88;1.80;;;29.20;62.50;;;;;;5095306;28;20039;-80
2022/07/18 08:10:55;;;;;;;1.30;1.17;;;29.40;62.50;;;;;;5095360;28;20511;-77
2022/07/18 08:13:21;;;;;;;1.40;1.30;;;;;;;;;;5077016;28;20040;-80
2022/07/18 08:15:47;;;;;;;2.13;1.33;;;29.40;61.80;;;;;;5095349;28;20518;-79
2022/07/18 08:18:13;;;;;;;1.92;1.30;;;29.50;61.90;;;;;;5095213;28;20036;-77
2022/07/18 08:20:39;;;;;;;2.13;1.25;;;29.90;63.30;;;;;;5095154;28;20044;-80
2022/07/18 08:23:07;;;;;;;2.78;1.60;;;30.20;63.70;;;;;;5106427;28;20047;-79
2022/07/18 08:25:36;;;;;;;2.10;1.63;;;30.30;63.30;;;;;;5095037;28;20059;-78
2022/07/18 08:28:03;;;;;;;4.20;1.45;;;30.50;61.90;;;;;;5095084;28;20135;-77
2022/07/18 08:30:30;;;;;;;2.03;1.60;;;30.60;61.50;;;;;;5107933;28;20040;-79
2022/07/18 08:32:56;;;;;;;1.70;1.45;;;30.60;61.90;;;;;;5092982;28;20507;-79
2022/07/18 08:35:22;;;;;;;1.85;1.38;;;30.50;62.30;;;;;;5095040;28;20048;-77
2022/07/18 08:37:48;;;;;;;4.38;1.48;;;31.10;62.00;;;;;;5094864;28;20059;-79
2022/07/18 08:40:14;;;;;;;1.48;1.30;;;;;;;;;;5112227;28;20502;-79
2022/07/18 08:42:41;;;;;;;1.52;1.35;;;;;;;;;;5115106;28;20047;-80
2022/07/18 08:45:07;;;;;;;2.15;1.60;;;31.40;91.00;;;;;;5115047;28;20031;-78
2022/07/18 08:47:34;;;;;;;1.98;1.30;;;31.40;60.90;;;;;;5114860;28;20035;-78
2022/07/18 08:50:01;;;;;;;3.08;1.35;;;31.40;60.90;;;;;;5115007;28;20372;-79
2022/07/18 08:52:28;;;;;;;1.73;1.30;;;31.40;62.40;;;;;;5114858;28;20051;-77
2022/07/18 08:54:55;;;;;;;2.15;1.42;;;31.50;63.80;;;;;;5114982;28;20529;-79
2022/07/18 08:57:22;;;;;;;2.25;1.65;;;31.90;63.20;;;;;;5096530;28;20048;-78
2022/07/18 08:59:48;;;;;;;2.28;1.17;;;32.00;63.60;;;;;;5114722;28;20118;-78
2022/07/18 09:02:13;;;;;;;2.13;1.20;;;31.80;63.10;;;;;;5096303;28;20142;-78
2022/07/18 09:04:42;;;;;;;2.10;1.35;;;31.60;61.60;;;;;;5114666;28;20069;-79
2022/07/18 09:07:09;;;;;;;2.88;1.45;;;31.20;62.00;;;;;;5114737;28;20039;-79
2022/07/18 09:09:36;;;;;;;1.60;1.25;;;31.10;62.90;;;;;;5114662;28;20036;-78
2022/07/18 09:12:06;;;;;;;2.17;1.60;;;31.60;64.10;;;;;;5114742;28;20563;-79
2022/07/18 09:14:43;;;;;;;2.47;1.65;;;32.10;62.10;;;;;;5096155;28;20030;-77
2022/07/18 09:17:17;;;;;;;2.15;1.80;;;31.80;64.50;;;;;;5114437;28;20050;-79
2022/07/18 09:20:03;;;;;;;3.10;1.77;;;32.10;63.50;;;;;;5114433;28;20524;-78
2022/07/18 09:22:31;;;;;;;2.30;1.77;;;31.90;62.60;;;;;;5096117;28;20521;-75
2022/07/18 09:25:20;;;;;;;1.92;1.40;;;32.10;64.90;;;;;;5096054;28;20410;-76
2022/07/18 09:27:48;;;;;;;2.40;1.70;;;31.50;61.50;;;;;;5124529;27;20481;-77
2022/07/18 09:30:24;;;;;;;2.03;1.58;;;31.70;62.50;;;;;;5114297;28;20055;-76
2022/07/18 09:33:01;;;;;;;3.20;1.73;;;32.00;64.40;;;;;;5114038;28;20035;-76
2022/07/18 09:35:29;;;;;;;1.63;1.40;;;32.30;62.80;;;;;;5114227;28;20066;-76
2022/07/18 09:38:04;;;;;;;1.60;1.30;;;32.00;62.80;;;;;;5114084;28;20038;-75
2022/07/18 09:40:35;;;;;;;2.22;1.70;;;31.20;62.30;;;;;;5114185;28;20050;-76
2022/07/18 09:43:03;;;;;;;3.15;1.60;;;31.90;61.90;;;;;;5114171;28;20100;-76
2022/07/18 09:45:42;;;;;;;2.13;1.40;;;31.70;61.00;;;;;;5095595;28;20096;-76
2022/07/18 09:48:14;;;;;;;2.47;1.48;;;32.40;61.10;;;;;;5113817;28;20189;-78
2022/07/18 09:50:49;;;;;;;1.70;1.38;;;31.90;61.20;;;;;;5095365;28;20036;-76
2022/07/18 09:53:29;;;;;;;3.65;1.58;;;31.30;61.00;;;;;;5095579;28;20483;-77
2022/07/18 09:56:03;;;;;;;1.23;1.00;;;31.20;61.60;;;;;;5113908;28;20406;-77
2022/07/18 09:58:32;;;;;;;1.73;1.40;;;31.70;61.40;;;;;;5113777;28;20047;-78
2022/07/18 10:01:01;;;;;;;1.55;1.45;;;31.80;59.20;;;;;;5113519;28;20047;-78
2022/07/18 10:03:27;;;;;;;1.93;1.33;;;31.90;60.50;;;;;;5095311;28;20035;-77
2022/07/18 10:05:55;;;;;;;2.03;1.48;;;31.40;59.70;;;;;;5113694;28;20058;-76
2022/07/18 10:08:26;;;;;;;1.35;1.25;;;31.20;61.50;;;;;;5113797;28;20496;-77
2022/07/18 10:10:54;;;;;;;2.08;1.23;;;31.10;60.00;;;;;;5113733;28;20027;-76
2022/07/18 10:13:22;;;;;;;1.63;1.25;;;31.30;59.40;;;;;;5095260;28;20088;-77
2022/07/18 10:15:50;;;;;;;1.60;1.30;;;32.00;60.20;;;;;;5095422;28;20030;-78
2022/07/18 10:18:24;;;;;;;1.10;1.00;;;31.70;59.10;;;;;;5113736;28;20494;-76
2022/07/18 10:20:58;;;;;;;1.45;1.17;;;31.50;58.70;;;;;;5113488;28;20126;-77
2022/07/18 10:23:32;;;;;;;1.70;1.58;;;31.40;55.80;;;;;;5113304;28;20116;-77
2022/07/18 10:26:14;;;;;;;2.58;1.75;;;31.40;58.60;;;;;;5094525;28;20027;-77
2022/07/18 10:29:15;;;;;;;2.30;1.50;;;31.50;58.40;;;;;;5113426;28;20529;-78
2022/07/18 10:32:01;;;;;;;4.57;1.67;;;31.10;58.00;;;;;;5080560;28;20127;-76
2022/07/18 10:34:33;;;;;;;3.10;2.10;;;31.40;58.30;;;;;;5113379;28;20084;-76
2022/07/18 10:37:02;;;;;;;1.98;1.50;;;31.90;59.40;;;;;;5113483;28;20043;-77
2022/07/18 10:39:40;;;;;;;3.30;1.77;;;31.90;57.20;;;;;;5113339;28;20122;-76
2022/07/18 10:42:08;;;;;;;2.17;1.40;;;32.10;56.90;;;;;;5113376;28;20055;-76
2022/07/18 10:44:36;;;;;;;4.93;2.13;;;32.20;58.40;;;;;;5113286;28;20032;-76
2022/07/18 10:47:12;;;;;;;1.92;1.50;;;32.40;57.10;;;;;;5113280;28;20118;-75
2022/07/18 10:49:47;;;;;;;1.73;1.40;;;32.50;57.60;;;;;;5113300;28;20068;-76
2022/07/18 10:52:28;;;;;;;2.28;1.27;;;32.10;57.00;;;;;;5113065;28;20095;-75
2022/07/18 10:55:03;;;;;;;1.60;1.30;;;32.50;56.40;;;;;;5094834;28;20565;-75
2022/07/18 10:57:29;;;;;;;1.33;1.10;;;32.80;55.00;;;;;;5113305;28;20039;-77
2022/07/18 11:00:08;;;;;;;1.98;1.25;;;33.20;54.00;;;;;;5094826;28;20043;-74
2022/07/18 11:02:43;;;;;;;3.88;1.35;;;32.80;56.00;;;;;;5094787;28;20048;-75
2022/07/18 11:05:36;;;;;;;2.10;1.38;;;32.50;55.90;;;;;;5113182;28;20026;-77
2022/07/18 11:08:02;;;;;;;3.42;1.60;;;32.50;57.20;;;;;;5110840;28;20031;-76
2022/07/18 11:10:47;;;;;;;1.70;1.30;;;32.40;56.30;;;;;;5091769;28;20052;-76
2022/07/18 11:13:26;;;;;;;4.15;1.60;;;32.50;56.40;;;;;;5107348;28;20414;-74
2022/07/18 11:16:10;;;;;;;2.88;1.60;;;31.80;56.50;;;;;;5113002;28;20131;-75
2022/07/18 11:18:44;;;;;;;1.73;1.45;;;31.80;57.50;;;;;;5112986;28;20056;-75
2022/07/18 11:21:30;;;;;;;2.08;1.30;;;31.90;57.00;;;;;;5112973;28;20040;-75
2022/07/18 11:24:08;;;;;;;2.42;1.55;;;32.30;57.30;;;;;;5094708;28;20043;-76
2022/07/18 11:26:35;;;;;;;2.30;1.23;;;32.60;56.40;;;;;;5094617;28;20475;-75
2022/07/18 11:29:09;;;;;;;1.42;1.10;;;32.10;55.40;;;;;;5112962;28;20055;-76
2022/07/18 11:31:45;;;;;;;2.28;1.35;;;32.10;57.40;;;;;;5112783;28;20125;-75
2022/07/18 11:34:11;;;;;;;1.90;1.30;;;31.90;56.20;;;;;;5094470;28;20043;-75
2022/07/18 11:36:39;;;;;;;1.55;1.17;;;31.90;55.70;;;;;;5113579;28;20051;-76
2022/07/18 11:39:05;;;;;;;1.42;1.23;;;31.60;55.50;;;;;;5116443;28;20410;-75
2022/07/18 11:41:31;;;;;;;1.30;1.13;;;32.30;54.40;;;;;;5098167;28;20055;-74
2022/07/18 11:43:57;;;;;;;2.03;1.17;;;32.30;52.50;;;;;;5098261;28;20173;-74
2022/07/18 11:46:26;;;;;;;1.48;1.30;;;32.60;51.60;;;;;;5113901;28;20047;-74
2022/07/18 11:49:02;;;;;;;1.95;1.50;;;32.40;55.20;;;;;;5101670;28;20040;-74
2022/07/18 11:51:43;;;;;;;2.03;1.05;;;32.70;54.80;;;;;;5089300;28;20069;-75
2022/07/18 11:54:10;;;;;;;2.03;1.30;;;32.50;55.00;;;;;;5090676;28;20027;-75
2022/07/18 11:56:53;;;;;;;1.65;1.00;;;32.90;55.80;;;;;;5095863;28;20044;-75
2022/07/18 11:59:19;;;;;;;4.82;0.88;;;33.10;49.10;;;;;;5111764;28;20043;-74
2022/07/18 12:01:45;;;;;;;3.00;1.20;;;33.20;51.40;;;;;;5095592;28;20198;-75
2022/07/18 12:04:23;;;;;;;1.83;1.17;;;33.20;53.90;;;;;;5095408;28;20032;-75
2022/07/18 12:07:16;;;;;;;1.40;1.25;;;33.20;74.20;;;;;;5094287;28;20092;-73
2022/07/18 12:09:42;;;;;;;2.47;1.25;;;33.30;79.80;;;;;;5093286;28;20035;-72
2022/07/18 12:12:12;;;;;;;2.35;1.38;;;33.40;61.20;;;;;;5095427;28;20032;-75
2022/07/18 12:14:38;;;;;;;1.73;1.10;;;33.30;67.90;;;;;;5094728;28;20071;-71
2022/07/18 12:17:05;;;;;;;1.35;1.25;;;33.30;60.80;;;;;;5093423;28;20095;-76
2022/07/18 12:19:36;;;;;;;2.10;1.30;;;33.30;60.60;;;;;;5096640;28;20096;-70
2022/07/18 12:22:10;;;;;;;1.05;0.95;;;33.30;64.90;;;;;;5092997;28;20047;-71
2022/07/18 12:24:53;;;;;;;1.20;1.00;;;33.40;69.60;;;;;;5093026;28;20078;-77
2022/07/18 12:27:29;;;;;;;1.17;1.00;;;33.70;70.60;;;;;;5093349;28;20047;-78
2022/07/18 12:30:04;;;;;;;1.52;1.17;;;33.90;52.60;;;;;;5093641;28;20404;-74
2022/07/18 12:32:45;;;;;;;1.33;0.93;;;33.10;50.90;;;;;;5098474;28;20063;-75
2022/07/18 12:35:14;;;;;;;1.10;0.90;;;33.00;51.80;;;;;;5101964;28;20608;-73
2022/07/18 12:37:40;;;;;;;1.10;0.63;;;33.20;50.50;;;;;;5092844;28;20051;-72
2022/07/18 12:40:09;;;;;;;1.00;0.70;;;33.30;45.40;;;;;;5110421;28;20036;-77
2022/07/18 12:42:40;;;;;;;1.13;0.80;;;33.20;46.00;;;;;;5094697;28;20139;-73
2022/07/18 12:45:08;;;;;;;0.70;0.65;;;33.50;46.30;;;;;;5075450;28;20075;-73
2022/07/18 12:47:34;;;;;;;1.50;1.08;;;33.80;43.90;;;;;;5078054;28;20047;-74
2022/07/18 12:50:00;;;;;;;0.88;0.80;;;33.70;45.20;;;;;;5081468;28;20044;-75
2022/07/18 12:52:26;;;;;;;1.13;0.93;;;33.60;47.30;;;;;;5094403;28;20046;-73